Shine, Washington
Current Conditions -  °F | °C
As of 11:53 PM on Thursday 23 Oct 2014 (Local Time) from KPAE Reporting Station
Clear Clear  
Wind Chill:   Ceiling: Unl
Heat Index:   Visibility: 10mi
Dew Point:   Wind: 6mph
Humidity: 83%   Direction: 120°ESE
Pressure: 30"   Gusts: NA
Location:  47.9628°N, 122.777°W
Report Text: KPAE 240653Z AUTO 12005KT 10SM CLR 09/06 A3000 RMK AO2 SLP159 T00890061
Loading
Personal Weather Stations






























Interactive Weather Map
Tropical Storm Tracking
New forecast layout! Learn more

10-Day Weather Forecast

Advertisements
Track Severe Weather on mobile